sensor_id;sensor_type;location;lat;lon;timestamp;pressure;altitude;pressure_sealevel;temperature;humidity
46448;BME280;32145;50.390;30.778;2023-07-13T00:01:14;99820.78;;;17.40;63.73
46448;BME280;32145;50.390;30.778;2023-07-13T00:04:09;99821.06;;;17.38;65.06
46448;BME280;32145;50.390;30.778;2023-07-13T00:07:05;99822.44;;;17.36;64.09
46448;BME280;32145;50.390;30.778;2023-07-13T00:10:02;99817.50;;;17.33;64.22
46448;BME280;32145;50.390;30.778;2023-07-13T00:12:59;99812.88;;;17.33;64.71
46448;BME280;32145;50.390;30.778;2023-07-13T00:15:56;99804.09;;;17.31;64.87
46448;BME280;32145;50.390;30.778;2023-07-13T00:18:52;99809.00;;;17.29;65.07
46448;BME280;32145;50.390;30.778;2023-07-13T00:21:49;99808.50;;;17.27;65.28
46448;BME280;32145;50.390;30.778;2023-07-13T00:24:45;99806.31;;;17.24;65.09
46448;BME280;32145;50.390;30.778;2023-07-13T00:27:43;99796.47;;;17.23;65.06
46448;BME280;32145;50.390;30.778;2023-07-13T00:30:37;99792.88;;;17.22;64.75
46448;BME280;32145;50.390;30.778;2023-07-13T00:33:31;99785.50;;;17.23;64.93
46448;BME280;32145;50.390;30.778;2023-07-13T00:36:25;99785.50;;;17.23;65.00
46448;BME280;32145;50.390;30.778;2023-07-13T00:39:19;99778.91;;;17.24;65.41
46448;BME280;32145;50.390;30.778;2023-07-13T00:42:13;99783.59;;;17.23;65.81
46448;BME280;32145;50.390;30.778;2023-07-13T00:48:18;99777.28;;;17.23;66.18
46448;BME280;32145;50.390;30.778;2023-07-13T00:51:13;99775.94;;;17.20;65.81
46448;BME280;32145;50.390;30.778;2023-07-13T00:54:08;99773.47;;;17.19;66.32
46448;BME280;32145;50.390;30.778;2023-07-13T00:57:04;99768.28;;;17.12;66.82
46448;BME280;32145;50.390;30.778;2023-07-13T00:59:59;99767.47;;;17.11;66.21
46448;BME280;32145;50.390;30.778;2023-07-13T01:02:56;99770.19;;;17.11;67.05
46448;BME280;32145;50.390;30.778;2023-07-13T01:05:54;99769.38;;;17.11;66.95
46448;BME280;32145;50.390;30.778;2023-07-13T01:08:50;99770.47;;;17.10;67.04
46448;BME280;32145;50.390;30.778;2023-07-13T01:11:46;99767.22;;;17.08;67.68
46448;BME280;32145;50.390;30.778;2023-07-13T01:14:42;99765.00;;;17.05;67.40
46448;BME280;32145;50.390;30.778;2023-07-13T01:17:38;99763.66;;;17.02;67.58
46448;BME280;32145;50.390;30.778;2023-07-13T01:20:34;99763.66;;;17.02;67.88
46448;BME280;32145;50.390;30.778;2023-07-13T01:23:33;99755.72;;;17.00;67.81
46448;BME280;32145;50.390;30.778;2023-07-13T01:26:26;99755.44;;;16.97;67.89
46448;BME280;32145;50.390;30.778;2023-07-13T01:29:23;99753.28;;;16.94;68.31
46448;BME280;32145;50.390;30.778;2023-07-13T01:32:20;99757.13;;;16.87;68.25
46448;BME280;32145;50.390;30.778;2023-07-13T01:35:17;99747.53;;;16.85;68.53
46448;BME280;32145;50.390;30.778;2023-07-13T01:38:14;99751.41;;;16.84;68.53
46448;BME280;32145;50.390;30.778;2023-07-13T01:41:11;99750.28;;;16.85;68.11
46448;BME280;32145;50.390;30.778;2023-07-13T01:44:07;99759.84;;;16.87;68.68
46448;BME280;32145;50.390;30.778;2023-07-13T01:47:03;99760.13;;;16.86;68.59
46448;BME280;32145;50.390;30.778;2023-07-13T01:49:59;99757.66;;;16.84;68.72
46448;BME280;32145;50.390;30.778;2023-07-13T01:52:55;99756.31;;;16.82;68.74
46448;BME280;32145;50.390;30.778;2023-07-13T01:55:51;99758.81;;;16.78;68.57
46448;BME280;32145;50.390;30.778;2023-07-13T01:58:48;99756.06;;;16.73;68.59
46448;BME280;32145;50.390;30.778;2023-07-13T02:01:45;99757.72;;;16.64;68.62
46448;BME280;32145;50.390;30.778;2023-07-13T02:04:40;99757.75;;;16.58;68.88
46448;BME280;32145;50.390;30.778;2023-07-13T02:07:36;99759.94;;;16.51;69.08
46448;BME280;32145;50.390;30.778;2023-07-13T02:10:32;99767.88;;;16.47;68.91
46448;BME280;32145;50.390;30.778;2023-07-13T02:13:26;99767.06;;;16.42;69.08
46448;BME280;32145;50.390;30.778;2023-07-13T02:16:22;99761.06;;;16.40;69.00
46448;BME280;32145;50.390;30.778;2023-07-13T02:19:16;99764.34;;;16.36;69.29
46448;BME280;32145;50.390;30.778;2023-07-13T02:22:10;99763.25;;;16.32;69.06
46448;BME280;32145;50.390;30.778;2023-07-13T02:25:04;99759.72;;;16.32;69.38
46448;BME280;32145;50.390;30.778;2023-07-13T02:27:58;99758.31;;;16.29;69.16
46448;BME280;32145;50.390;30.778;2023-07-13T02:30:52;99759.97;;;16.25;69.32
46448;BME280;32145;50.390;30.778;2023-07-13T02:33:48;99752.34;;;16.22;69.71
46448;BME280;32145;50.390;30.778;2023-07-13T02:36:42;99755.34;;;16.20;69.63
46448;BME280;32145;50.390;30.778;2023-07-13T02:39:36;99753.41;;;16.21;69.85
46448;BME280;32145;50.390;30.778;2023-07-13T02:42:29;99756.69;;;16.23;70.53
46448;BME280;32145;50.390;30.778;2023-07-13T02:45:25;99749.03;;;16.20;70.32
46448;BME280;32145;50.390;30.778;2023-07-13T02:48:21;99750.66;;;16.21;70.53
46448;BME280;32145;50.390;30.778;2023-07-13T02:51:19;99746.28;;;16.25;70.43
46448;BME280;32145;50.390;30.778;2023-07-13T02:54:15;99754.78;;;16.29;69.93
46448;BME280;32145;50.390;30.778;2023-07-13T02:57:11;99767.63;;;16.39;70.01
46448;BME280;32145;50.390;30.778;2023-07-13T03:00:08;99755.03;;;16.48;69.59
46448;BME280;32145;50.390;30.778;2023-07-13T03:03:04;99751.16;;;16.59;69.57
46448;BME280;32145;50.390;30.778;2023-07-13T03:06:01;99749.22;;;16.70;69.54
46448;BME280;32145;50.390;30.778;2023-07-13T03:08:58;99762.63;;;16.77;69.75
46448;BME280;32145;50.390;30.778;2023-07-13T03:11:55;99759.31;;;16.85;69.27
46448;BME280;32145;50.390;30.778;2023-07-13T03:14:51;99764.22;;;16.94;68.99
46448;BME280;32145;50.390;30.778;2023-07-13T03:17:47;99761.44;;;17.04;69.10
46448;BME280;32145;50.390;30.778;2023-07-13T03:20:43;99762.81;;;17.12;68.35
46448;BME280;32145;50.390;30.778;2023-07-13T03:23:39;99751.00;;;17.22;67.59
46448;BME280;32145;50.390;30.778;2023-07-13T03:26:37;99752.59;;;17.33;68.95
46448;BME280;32145;50.390;30.778;2023-07-13T03:29:33;99758.81;;;17.44;68.63
46448;BME280;32145;50.390;30.778;2023-07-13T03:32:28;99755.44;;;17.58;68.35
46448;BME280;32145;50.390;30.778;2023-07-13T03:35:24;99749.81;;;17.84;67.69
46448;BME280;32145;50.390;30.778;2023-07-13T03:38:21;99763.00;;;18.16;66.12
46448;BME280;32145;50.390;30.778;2023-07-13T03:41:17;99757.34;;;18.62;65.57
46448;BME280;32145;50.390;30.778;2023-07-13T03:44:15;99754.88;;;19.14;63.79
46448;BME280;32145;50.390;30.778;2023-07-13T03:47:11;99751.31;;;19.71;62.34
46448;BME280;32145;50.390;30.778;2023-07-13T03:50:08;99760.91;;;19.93;60.62
46448;BME280;32145;50.390;30.778;2023-07-13T03:53:04;99754.16;;;20.52;60.57
46448;BME280;32145;50.390;30.778;2023-07-13T03:56:00;99750.25;;;21.01;57.77
46448;BME280;32145;50.390;30.778;2023-07-13T03:58:56;99756.22;;;21.17;56.06
46448;BME280;32145;50.390;30.778;2023-07-13T04:01:54;99759.69;;;21.22;55.13
46448;BME280;32145;50.390;30.778;2023-07-13T04:04:50;99760.00;;;21.35;54.01
46448;BME280;32145;50.390;30.778;2023-07-13T04:07:46;99751.34;;;21.28;54.21
46448;BME280;32145;50.390;30.778;2023-07-13T04:10:42;99761.25;;;21.15;54.46
46448;BME280;32145;50.390;30.778;2023-07-13T04:13:38;99757.91;;;20.90;54.62
46448;BME280;32145;50.390;30.778;2023-07-13T04:16:34;99761.94;;;20.64;55.15
46448;BME280;32145;50.390;30.778;2023-07-13T04:19:29;99762.13;;;20.54;55.58
46448;BME280;32145;50.390;30.778;2023-07-13T04:22:23;99752.13;;;20.58;55.54
46448;BME280;32145;50.390;30.778;2023-07-13T04:25:17;99757.63;;;20.58;55.16
46448;BME280;32145;50.390;30.778;2023-07-13T04:28:11;99755.19;;;20.56;55.39
46448;BME280;32145;50.390;30.778;2023-07-13T04:31:04;99752.66;;;20.60;55.50
46448;BME280;32145;50.390;30.778;2023-07-13T04:33:58;99761.72;;;20.74;55.49
46448;BME280;32145;50.390;30.778;2023-07-13T04:36:54;99760.97;;;20.88;55.16
46448;BME280;32145;50.390;30.778;2023-07-13T04:39:50;99753.09;;;20.95;54.73
46448;BME280;32145;50.390;30.778;2023-07-13T04:42:46;99747.88;;;21.08;54.25
46448;BME280;32145;50.390;30.778;2023-07-13T04:45:42;99750.66;;;21.08;54.15
46448;BME280;32145;50.390;30.778;2023-07-13T04:48:38;99749.31;;;21.19;54.15
46448;BME280;32145;50.390;30.778;2023-07-13T04:51:34;99758.66;;;21.32;53.35
46448;BME280;32145;50.390;30.778;2023-07-13T04:54:29;99759.56;;;21.42;53.07
46448;BME280;32145;50.390;30.778;2023-07-13T04:57:23;99762.19;;;21.61;53.17
46448;BME280;32145;50.390;30.778;2023-07-13T05:00:18;99766.75;;;21.80;52.86
46448;BME280;32145;50.390;30.778;2023-07-13T05:03:12;99789.25;;;21.96;52.31
46448;BME280;32145;50.390;30.778;2023-07-13T05:06:08;99783.81;;;22.05;51.96
46448;BME280;32145;50.390;30.778;2023-07-13T05:09:04;99781.06;;;22.05;52.19
46448;BME280;32145;50.390;30.778;2023-07-13T05:11:59;99777.91;;;21.97;51.90
46448;BME280;32145;50.390;30.778;2023-07-13T05:14:54;99771.59;;;21.97;52.17
46448;BME280;32145;50.390;30.778;2023-07-13T05:17:49;99782.69;;;22.06;51.89
46448;BME280;32145;50.390;30.778;2023-07-13T05:20:46;99781.50;;;21.98;51.86
46448;BME280;32145;50.390;30.778;2023-07-13T05:23:41;99785.63;;;21.86;52.55
46448;BME280;32145;50.390;30.778;2023-07-13T05:26:37;99781.41;;;21.89;52.28
46448;BME280;32145;50.390;30.778;2023-07-13T05:29:35;99784.81;;;21.86;52.01
46448;BME280;32145;50.390;30.778;2023-07-13T05:32:31;99777.41;;;21.95;51.96
46448;BME280;32145;50.390;30.778;2023-07-13T05:35:27;99771.59;;;21.97;51.75
46448;BME280;32145;50.390;30.778;2023-07-13T05:38:23;99771.16;;;22.04;51.72
46448;BME280;32145;50.390;30.778;2023-07-13T05:41:19;99773.59;;;22.05;51.72
46448;BME280;32145;50.390;30.778;2023-07-13T05:44:16;99773.28;;;22.07;51.76
46448;BME280;32145;50.390;30.778;2023-07-13T05:47:13;99766.44;;;22.04;51.77
46448;BME280;32145;50.390;30.778;2023-07-13T05:50:09;99765.34;;;22.14;51.84
46448;BME280;32145;50.390;30.778;2023-07-13T05:53:05;99770.19;;;22.31;51.82
46448;BME280;32145;50.390;30.778;2023-07-13T05:55:59;99770.16;;;22.54;51.45
46448;BME280;32145;50.390;30.778;2023-07-13T05:58:53;99775.13;;;22.66;51.15
46448;BME280;32145;50.390;30.778;2023-07-13T06:01:48;99773.34;;;22.70;50.59
46448;BME280;32145;50.390;30.778;2023-07-13T06:04:43;99780.97;;;22.73;50.32
46448;BME280;32145;50.390;30.778;2023-07-13T06:07:37;99783.78;;;22.82;50.14
46448;BME280;32145;50.390;30.778;2023-07-13T06:10:32;99774.19;;;22.79;50.14
46448;BME280;32145;50.390;30.778;2023-07-13T06:13:26;99768.38;;;22.90;50.24
46448;BME280;32145;50.390;30.778;2023-07-13T06:16:20;99777.88;;;23.07;50.41
46448;BME280;32145;50.390;30.778;2023-07-13T06:19:14;99770.69;;;23.05;49.95
46448;BME280;32145;50.390;30.778;2023-07-13T06:22:10;99765.16;;;23.05;50.17
46448;BME280;32145;50.390;30.778;2023-07-13T06:25:04;99760.22;;;22.85;49.32
46448;BME280;32145;50.390;30.778;2023-07-13T06:28:01;99770.91;;;22.77;49.64
46448;BME280;32145;50.390;30.778;2023-07-13T06:30:56;99766.38;;;22.82;49.21
46448;BME280;32145;50.390;30.778;2023-07-13T06:33:52;99767.25;;;22.91;49.49
46448;BME280;32145;50.390;30.778;2023-07-13T06:36:48;99772.16;;;23.03;48.88
46448;BME280;32145;50.390;30.778;2023-07-13T06:39:46;99765.50;;;23.13;49.38
46448;BME280;32145;50.390;30.778;2023-07-13T06:42:42;99774.00;;;23.25;49.20
46448;BME280;32145;50.390;30.778;2023-07-13T06:48:35;99765.25;;;23.41;48.90
46448;BME280;32145;50.390;30.778;2023-07-13T06:51:31;99766.44;;;23.66;48.89
46448;BME280;32145;50.390;30.778;2023-07-13T06:54:27;99760.91;;;23.75;48.07
46448;BME280;32145;50.390;30.778;2023-07-13T06:57:24;99770.81;;;23.76;48.33
46448;BME280;32145;50.390;30.778;2023-07-13T07:00:21;99770.19;;;23.88;48.71
46448;BME280;32145;50.390;30.778;2023-07-13T07:03:17;99770.81;;;23.94;48.30
46448;BME280;32145;50.390;30.778;2023-07-13T07:06:13;99772.78;;;24.02;48.70
46448;BME280;32145;50.390;30.778;2023-07-13T07:09:09;99772.91;;;24.06;48.62
46448;BME280;32145;50.390;30.778;2023-07-13T07:12:06;99777.47;;;24.11;48.39
46448;BME280;32145;50.390;30.778;2023-07-13T07:15:04;99774.25;;;24.17;48.35
46448;BME280;32145;50.390;30.778;2023-07-13T07:18:00;99777.84;;;24.18;48.93
46448;BME280;32145;50.390;30.778;2023-07-13T07:20:55;99776.50;;;24.24;47.76
46448;BME280;32145;50.390;30.778;2023-07-13T07:23:49;99777.66;;;24.32;47.83
46448;BME280;32145;50.390;30.778;2023-07-13T07:26:43;99772.13;;;24.23;47.72
46448;BME280;32145;50.390;30.778;2023-07-13T07:29:39;99773.91;;;24.19;47.95
46448;BME280;32145;50.390;30.778;2023-07-13T07:32:36;99765.59;;;24.19;48.55
46448;BME280;32145;50.390;30.778;2023-07-13T07:35:33;99778.09;;;24.34;48.38
46448;BME280;32145;50.390;30.778;2023-07-13T07:38:29;99778.59;;;24.45;47.85
46448;BME280;32145;50.390;30.778;2023-07-13T07:41:24;99775.25;;;24.61;48.02
46448;BME280;32145;50.390;30.778;2023-07-13T07:44:21;99773.59;;;24.77;48.38
46448;BME280;32145;50.390;30.778;2023-07-13T07:47:17;99780.88;;;24.82;47.85
46448;BME280;32145;50.390;30.778;2023-07-13T07:50:12;99781.94;;;24.68;47.57
46448;BME280;32145;50.390;30.778;2023-07-13T07:53:06;99789.25;;;24.73;48.61
46448;BME280;32145;50.390;30.778;2023-07-13T07:56:01;99791.19;;;24.81;47.96
46448;BME280;32145;50.390;30.778;2023-07-13T07:58:54;99798.34;;;24.82;48.90
46448;BME280;32145;50.390;30.778;2023-07-13T08:01:50;99792.31;;;24.89;48.26
46448;BME280;32145;50.390;30.778;2023-07-13T08:04:46;99790.50;;;24.84;47.43
46448;BME280;32145;50.390;30.778;2023-07-13T08:07:43;99794.75;;;24.91;47.28
46448;BME280;32145;50.390;30.778;2023-07-13T08:10:40;99786.69;;;25.07;48.22
46448;BME280;32145;50.390;30.778;2023-07-13T08:13:36;99784.13;;;25.23;47.10
46448;BME280;32145;50.390;30.778;2023-07-13T08:16:32;99777.94;;;25.26;46.86
46448;BME280;32145;50.390;30.778;2023-07-13T08:19:27;99768.06;;;25.38;46.81
46448;BME280;32145;50.390;30.778;2023-07-13T08:22:23;99777.75;;;25.53;47.18
46448;BME280;32145;50.390;30.778;2023-07-13T08:25:21;99772.28;;;25.65;46.86
46448;BME280;32145;50.390;30.778;2023-07-13T08:28:18;99775.56;;;25.67;47.22
46448;BME280;32145;50.390;30.778;2023-07-13T08:31:13;99778.94;;;25.73;45.59
46448;BME280;32145;50.390;30.778;2023-07-13T08:34:07;99784.00;;;25.71;45.58
46448;BME280;32145;50.390;30.778;2023-07-13T08:37:01;99777.28;;;25.72;45.57
46448;BME280;32145;50.390;30.778;2023-07-13T08:39:55;99764.56;;;25.71;45.42
46448;BME280;32145;50.390;30.778;2023-07-13T08:42:53;99771.22;;;26.12;45.42
46448;BME280;32145;50.390;30.778;2023-07-13T08:45:50;99766.59;;;26.50;44.22
46448;BME280;32145;50.390;30.778;2023-07-13T08:48:48;99760.47;;;26.57;44.46
46448;BME280;32145;50.390;30.778;2023-07-13T08:51:46;99758.84;;;26.44;44.25
46448;BME280;32145;50.390;30.778;2023-07-13T08:54:45;99768.06;;;26.35;44.76
46448;BME280;32145;50.390;30.778;2023-07-13T08:57:46;99756.19;;;26.13;45.24
46448;BME280;32145;50.390;30.778;2023-07-13T09:00:46;99763.34;;;26.15;46.23
46448;BME280;32145;50.390;30.778;2023-07-13T09:03:46;99760.88;;;26.34;45.81
46448;BME280;32145;50.390;30.778;2023-07-13T09:06:49;99758.88;;;26.69;45.83
46448;BME280;32145;50.390;30.778;2023-07-13T09:09:48;99751.44;;;26.85;44.95
46448;BME280;32145;50.390;30.778;2023-07-13T09:12:51;99764.09;;;27.20;45.23
46448;BME280;32145;50.390;30.778;2023-07-13T09:15:52;99760.50;;;27.61;44.79
46448;BME280;32145;50.390;30.778;2023-07-13T09:18:49;99753.94;;;27.94;44.40
46448;BME280;32145;50.390;30.778;2023-07-13T09:21:46;99755.50;;;28.08;43.43
46448;BME280;32145;50.390;30.778;2023-07-13T09:24:46;99761.09;;;27.79;42.38
46448;BME280;32145;50.390;30.778;2023-07-13T09:27:45;99749.38;;;27.61;41.59
46448;BME280;32145;50.390;30.778;2023-07-13T09:30:45;99750.50;;;27.44;42.24
46448;BME280;32145;50.390;30.778;2023-07-13T09:33:43;99746.34;;;27.25;41.89
46448;BME280;32145;50.390;30.778;2023-07-13T09:36:39;99739.38;;;27.19;42.51
46448;BME280;32145;50.390;30.778;2023-07-13T09:39:36;99751.25;;;27.15;42.62
46448;BME280;32145;50.390;30.778;2023-07-13T09:42:32;99743.00;;;27.19;43.06
46448;BME280;32145;50.390;30.778;2023-07-13T09:45:30;99736.38;;;27.24;42.69
46448;BME280;32145;50.390;30.778;2023-07-13T09:48:24;99737.41;;;27.32;42.44
46448;BME280;32145;50.390;30.778;2023-07-13T09:51:20;99734.94;;;27.55;42.95
46448;BME280;32145;50.390;30.778;2023-07-13T09:54:18;99739.34;;;27.85;42.30
46448;BME280;32145;50.390;30.778;2023-07-13T09:57:13;99735.34;;;27.98;42.70
46448;BME280;32145;50.390;30.778;2023-07-13T10:00:18;99720.91;;;28.09;41.83
46448;BME280;32145;50.390;30.778;2023-07-13T10:03:16;99716.38;;;28.33;41.95
46448;BME280;32145;50.390;30.778;2023-07-13T10:06:11;99717.88;;;28.62;41.87
46448;BME280;32145;50.390;30.778;2023-07-13T10:09:07;99709.22;;;29.00;40.54
46448;BME280;32145;50.390;30.778;2023-07-13T10:12:01;99707.03;;;29.09;39.81
46448;BME280;32145;50.390;30.778;2023-07-13T10:14:56;99711.91;;;29.12;39.80
46448;BME280;32145;50.390;30.778;2023-07-13T10:17:54;99706.31;;;29.12;39.17
46448;BME280;32145;50.390;30.778;2023-07-13T10:20:51;99712.13;;;29.43;39.73
46448;BME280;32145;50.390;30.778;2023-07-13T10:23:51;99708.28;;;29.67;38.90
46448;BME280;32145;50.390;30.778;2023-07-13T10:26:52;99701.66;;;29.56;38.41
46448;BME280;32145;50.390;30.778;2023-07-13T10:29:47;99714.56;;;29.25;38.01
46448;BME280;32145;50.390;30.778;2023-07-13T10:32:42;99703.75;;;28.87;38.05
46448;BME280;32145;50.390;30.778;2023-07-13T10:35:36;99693.66;;;28.99;38.85
46448;BME280;32145;50.390;30.778;2023-07-13T10:38:34;99695.97;;;29.13;39.04
46448;BME280;32145;50.390;30.778;2023-07-13T10:41:32;99693.22;;;28.97;38.74
46448;BME280;32145;50.390;30.778;2023-07-13T10:44:32;99678.47;;;28.80;39.68
46448;BME280;32145;50.390;30.778;2023-07-13T10:47:28;99665.59;;;28.75;39.90
46448;BME280;32145;50.390;30.778;2023-07-13T10:50:25;99663.97;;;28.90;40.42
46448;BME280;32145;50.390;30.778;2023-07-13T10:53:28;99651.66;;;28.91;39.87
46448;BME280;32145;50.390;30.778;2023-07-13T10:56:28;99654.88;;;28.93;40.04
46448;BME280;32145;50.390;30.778;2023-07-13T10:59:25;99652.53;;;28.96;40.67
46448;BME280;32145;50.390;30.778;2023-07-13T11:02:24;99644.34;;;29.03;39.91
46448;BME280;32145;50.390;30.778;2023-07-13T11:05:26;99633.44;;;28.98;40.39
46448;BME280;32145;50.390;30.778;2023-07-13T11:08:32;99644.09;;;29.12;41.10
46448;BME280;32145;50.390;30.778;2023-07-13T11:11:32;99633.47;;;29.37;40.79
46448;BME280;32145;50.390;30.778;2023-07-13T11:14:30;99625.75;;;29.50;39.80
46448;BME280;32145;50.390;30.778;2023-07-13T11:17:37;99617.69;;;29.45;38.96
46448;BME280;32145;50.390;30.778;2023-07-13T11:20:39;99623.28;;;29.25;39.92
46448;BME280;32145;50.390;30.778;2023-07-13T11:23:33;99620.63;;;29.32;40.14
46448;BME280;32145;50.390;30.778;2023-07-13T11:26:39;99618.19;;;29.31;39.55
46448;BME280;32145;50.390;30.778;2023-07-13T11:29:35;99618.06;;;29.24;39.94
46448;BME280;32145;50.390;30.778;2023-07-13T11:32:30;99608.78;;;29.39;39.99
46448;BME280;32145;50.390;30.778;2023-07-13T11:35:26;99629.50;;;29.38;39.52
46448;BME280;32145;50.390;30.778;2023-07-13T11:38:28;99625.91;;;29.38;39.77
46448;BME280;32145;50.390;30.778;2023-07-13T11:41:27;99620.97;;;29.51;39.14
46448;BME280;32145;50.390;30.778;2023-07-13T11:44:24;99634.81;;;29.63;39.49
46448;BME280;32145;50.390;30.778;2023-07-13T11:47:21;99631.50;;;29.57;38.56
46448;BME280;32145;50.390;30.778;2023-07-13T11:50:19;99625.09;;;29.57;38.61
46448;BME280;32145;50.390;30.778;2023-07-13T11:53:16;99627.59;;;29.62;38.86
46448;BME280;32145;50.390;30.778;2023-07-13T11:56:13;99629.94;;;29.60;39.14
46448;BME280;32145;50.390;30.778;2023-07-13T11:59:10;99625.09;;;29.57;39.51
46448;BME280;32145;50.390;30.778;2023-07-13T12:02:08;99624.31;;;29.56;39.21
46448;BME280;32145;50.390;30.778;2023-07-13T12:05:10;99614.06;;;29.64;38.67
46448;BME280;32145;50.390;30.778;2023-07-13T12:08:08;99607.25;;;29.85;39.33
46448;BME280;32145;50.390;30.778;2023-07-13T12:11:05;99599.81;;;30.16;38.87
46448;BME280;32145;50.390;30.778;2023-07-13T12:14:00;99600.47;;;30.33;38.24
46448;BME280;32145;50.390;30.778;2023-07-13T12:16:54;99600.03;;;30.31;38.58
46448;BME280;32145;50.390;30.778;2023-07-13T12:19:48;99600.22;;;29.95;38.71
46448;BME280;32145;50.390;30.778;2023-07-13T12:22:45;99595.84;;;29.70;39.49
46448;BME280;32145;50.390;30.778;2023-07-13T12:25:39;99601.16;;;29.56;40.11
46448;BME280;32145;50.390;30.778;2023-07-13T12:28:35;99591.41;;;29.69;40.63
46448;BME280;32145;50.390;30.778;2023-07-13T12:31:30;99586.06;;;30.07;40.00
46448;BME280;32145;50.390;30.778;2023-07-13T12:34:25;99594.38;;;30.27;40.46
46448;BME280;32145;50.390;30.778;2023-07-13T12:37:19;99589.94;;;30.50;40.24
46448;BME280;32145;50.390;30.778;2023-07-13T12:40:14;99592.03;;;30.56;39.83
46448;BME280;32145;50.390;30.778;2023-07-13T12:43:11;99585.47;;;30.72;40.22
46448;BME280;32145;50.390;30.778;2023-07-13T12:46:01;99581.31;;;30.89;40.26
46448;BME280;32145;50.390;30.778;2023-07-13T12:48:57;99575.94;;;30.77;40.08
46448;BME280;32145;50.390;30.778;2023-07-13T12:51:56;99573.91;;;30.46;40.60
46448;BME280;32145;50.390;30.778;2023-07-13T12:54:52;99570.56;;;30.10;41.32
46448;BME280;32145;50.390;30.778;2023-07-13T12:57:49;99570.75;;;29.97;42.39
46448;BME280;32145;50.390;30.778;2023-07-13T13:00:48;99562.91;;;30.07;41.99
46448;BME280;32145;50.390;30.778;2023-07-13T13:03:46;99563.06;;;30.14;42.66
46448;BME280;32145;50.390;30.778;2023-07-13T13:06:43;99558.00;;;30.51;42.44
46448;BME280;32145;50.390;30.778;2023-07-13T13:09:39;99551.97;;;30.76;42.17
46448;BME280;32145;50.390;30.778;2023-07-13T13:12:35;99547.41;;;30.94;41.88
46448;BME280;32145;50.390;30.778;2023-07-13T13:15:31;99537.41;;;30.93;41.33
46448;BME280;32145;50.390;30.778;2023-07-13T13:18:25;99532.81;;;30.78;41.96
46448;BME280;32145;50.390;30.778;2023-07-13T13:21:20;99530.44;;;30.80;41.96
46448;BME280;32145;50.390;30.778;2023-07-13T13:24:17;99521.06;;;30.68;40.63
46448;BME280;32145;50.390;30.778;2023-07-13T13:27:17;99527.84;;;30.67;40.21
46448;BME280;32145;50.390;30.778;2023-07-13T13:30:14;99513.53;;;30.72;41.07
46448;BME280;32145;50.390;30.778;2023-07-13T13:33:11;99523.84;;;30.68;40.10
46448;BME280;32145;50.390;30.778;2023-07-13T13:36:08;99506.47;;;30.52;39.79
46448;BME280;32145;50.390;30.778;2023-07-13T13:39:05;99508.13;;;30.56;40.75
46448;BME280;32145;50.390;30.778;2023-07-13T13:41:59;99513.09;;;30.70;40.52
46448;BME280;32145;50.390;30.778;2023-07-13T13:44:53;99501.06;;;30.66;40.34
46448;BME280;32145;50.390;30.778;2023-07-13T13:47:47;99510.31;;;30.70;40.95
46448;BME280;32145;50.390;30.778;2023-07-13T13:50:41;99502.25;;;30.65;40.23
46448;BME280;32145;50.390;30.778;2023-07-13T13:53:35;99497.38;;;30.58;40.96
46448;BME280;32145;50.390;30.778;2023-07-13T13:56:30;99493.09;;;30.68;39.84
46448;BME280;32145;50.390;30.778;2023-07-13T13:59:26;99489.81;;;30.63;39.76
46448;BME280;32145;50.390;30.778;2023-07-13T14:02:23;99485.91;;;30.67;39.79
46448;BME280;32145;50.390;30.778;2023-07-13T14:05:20;99483.09;;;30.67;40.11
46448;BME280;32145;50.390;30.778;2023-07-13T14:08:18;99486.88;;;30.79;40.01
46448;BME280;32145;50.390;30.778;2023-07-13T14:11:14;99485.72;;;30.83;39.83
46448;BME280;32145;50.390;30.778;2023-07-13T14:14:14;99486.41;;;30.77;40.34
46448;BME280;32145;50.390;30.778;2023-07-13T14:17:14;99488.84;;;30.78;39.91
46448;BME280;32145;50.390;30.778;2023-07-13T14:20:13;99470.47;;;30.81;39.85
46448;BME280;32145;50.390;30.778;2023-07-13T14:23:09;99473.00;;;30.59;39.73
46448;BME280;32145;50.390;30.778;2023-07-13T14:26:07;99475.31;;;30.50;40.60
46448;BME280;32145;50.390;30.778;2023-07-13T14:29:04;99462.63;;;30.59;39.84
46448;BME280;32145;50.390;30.778;2023-07-13T14:32:00;99457.06;;;30.63;40.00
46448;BME280;32145;50.390;30.778;2023-07-13T14:34:55;99451.03;;;30.61;39.61
46448;BME280;32145;50.390;30.778;2023-07-13T14:37:48;99442.00;;;30.71;39.86
46448;BME280;32145;50.390;30.778;2023-07-13T14:40:44;99452.53;;;30.82;41.03
46448;BME280;32145;50.390;30.778;2023-07-13T14:43:41;99444.34;;;31.04;40.73
46448;BME280;32145;50.390;30.778;2023-07-13T14:46:36;99449.66;;;31.16;41.06
46448;BME280;32145;50.390;30.778;2023-07-13T14:49:34;99443.38;;;31.27;40.77
46448;BME280;32145;50.390;30.778;2023-07-13T14:52:31;99436.94;;;31.22;40.98
46448;BME280;32145;50.390;30.778;2023-07-13T14:55:27;99442.91;;;31.21;40.75
46448;BME280;32145;50.390;30.778;2023-07-13T14:58:23;99430.97;;;31.28;41.38
46448;BME280;32145;50.390;30.778;2023-07-13T15:01:19;99433.38;;;31.25;40.33
46448;BME280;32145;50.390;30.778;2023-07-13T15:04:16;99427.47;;;30.96;40.03
46448;BME280;32145;50.390;30.778;2023-07-13T15:07:13;99431.16;;;30.66;39.97
46448;BME280;32145;50.390;30.778;2023-07-13T15:10:13;99434.06;;;30.43;41.23
46448;BME280;32145;50.390;30.778;2023-07-13T15:13:13;99431.59;;;30.38;42.31
46448;BME280;32145;50.390;30.778;2023-07-13T15:16:15;99434.03;;;30.39;43.12
46448;BME280;32145;50.390;30.778;2023-07-13T15:19:11;99433.34;;;30.50;42.74
46448;BME280;32145;50.390;30.778;2023-07-13T15:22:07;99427.91;;;30.64;42.98
46448;BME280;32145;50.390;30.778;2023-07-13T15:25:03;99424.00;;;30.72;43.11
46448;BME280;32145;50.390;30.778;2023-07-13T15:28:02;99433.22;;;30.73;42.82